Time;durP1;ratioP1;P1;durP2;ratioP2;P2;SDS_P1;SDS_P2;PMS_P1;PMS_P2;Temp;Humidity;BMP_temperature;BMP_pressure;BME280_temperature;BME280_humidity;BME280_pressure;Samples;Min_cycle;Max_cycle;Signal;HPM_P1;HPM_P2
2023/09/13 00:00:48;;;;;;;24.50;21.87;;;;;;;21.81;100.00;101197.13;5172201;28;20027;-71
2023/09/13 00:03:19;;;;;;;23.63;21.40;;;;;;;21.63;100.00;101182.84;5172484;28;20033;-73
2023/09/13 00:05:50;;;;;;;22.70;20.35;;;;;;;21.73;100.00;101182.72;5171749;28;20027;-71
2023/09/13 00:08:22;;;;;;;25.77;22.65;;;;;;;21.71;100.00;101190.03;5171407;28;20027;-70
2023/09/13 00:10:53;;;;;;;23.92;21.60;;;;;;;21.81;100.00;101194.47;5171889;28;20442;-70
2023/09/13 00:13:24;;;;;;;22.45;20.23;;;;;;;21.62;100.00;101201.66;5171084;28;20026;-70
2023/09/13 00:15:55;;;;;;;22.58;20.27;;;;;;;21.71;100.00;101189.22;5171779;28;20490;-69
2023/09/13 00:18:27;;;;;;;23.77;21.40;;;;;;;21.40;100.00;101193.16;5172302;28;20110;-70
2023/09/13 00:20:58;;;;;;;25.15;21.48;;;;;;;21.38;100.00;101184.53;5171947;28;20026;-69
2023/09/13 00:23:30;;;;;;;26.35;22.40;;;;;;;21.63;100.00;101188.16;5172251;28;20089;-68
2023/09/13 00:26:01;;;;;;;23.80;21.60;;;;;;;21.47;100.00;101188.91;5176039;28;20035;-70
2023/09/13 00:28:32;;;;;;;25.53;22.93;;;;;;;21.42;100.00;101183.19;5176308;28;20031;-70
2023/09/13 00:31:04;;;;;;;24.80;22.27;;;;;;;21.34;100.00;101191.13;5175146;28;20105;-71
2023/09/13 00:33:35;;;;;;;25.13;22.48;;;;;;;21.45;100.00;101188.22;5175312;28;20027;-71
2023/09/13 00:36:06;;;;;;;26.73;23.23;;;;;;;21.39;100.00;101197.69;5172044;28;20019;-70
2023/09/13 00:38:38;;;;;;;25.73;23.37;;;;;;;21.48;100.00;101192.41;5167010;28;20035;-70
2023/09/13 00:41:09;;;;;;;24.37;21.77;;;;;;;21.48;100.00;101192.41;5172603;28;20063;-70
2023/09/13 00:43:40;;;;;;;26.93;23.97;;;;;;;21.25;100.00;101193.75;5173301;28;20085;-71
2023/09/13 00:46:13;;;;;;;26.80;24.00;;;;;;;21.31;100.00;101188.78;5175050;28;20039;-70
2023/09/13 00:48:44;;;;;;;25.67;22.90;;;;;;;21.38;100.00;101195.19;5174886;28;20051;-70
2023/09/13 00:51:16;;;;;;;26.10;23.60;;;;;;;21.40;100.00;101196.69;5175468;28;20089;-70
2023/09/13 00:53:47;;;;;;;28.50;25.80;;;;;;;21.28;100.00;101200.56;5174414;28;20121;-71
2023/09/13 00:56:19;;;;;;;27.27;24.37;;;;;;;21.20;100.00;101192.53;5189610;28;20019;-71
2023/09/13 00:58:51;;;;;;;29.87;26.70;;;;;;;21.19;100.00;101191.69;5175812;28;20562;-71
2023/09/13 01:01:23;;;;;;;27.60;24.87;;;;;;;21.24;100.00;101192.06;5175383;28;20026;-69
2023/09/13 01:03:56;;;;;;;28.07;25.27;;;;;;;21.14;100.00;101184.16;5174865;28;20485;-69
2023/09/13 01:06:27;;;;;;;30.00;26.83;;;;;;;21.11;100.00;101191.63;5174999;28;20113;-69
2023/09/13 01:08:59;;;;;;;29.50;26.47;;;;;;;20.78;100.00;101161.03;5193836;22;20149;-80
2023/09/13 01:11:30;;;;;;;30.87;27.67;;;;;;;20.86;100.00;101162.94;5173060;28;20031;-80
2023/09/13 01:14:02;;;;;;;31.67;28.30;;;;;;;20.93;100.00;101179.13;5178718;28;20058;-80
2023/09/13 01:16:45;;;;;;;31.10;27.87;;;;;;;21.03;100.00;101158.59;5173648;28;20021;-80
2023/09/13 01:19:50;;;;;;;29.93;26.70;;;;;;;21.31;100.00;101183.47;5183618;28;20029;-81
2023/09/13 01:22:32;;;;;;;33.47;30.02;;;;;;;20.78;100.00;101134.44;5173779;28;20034;-80
2023/09/13 01:25:32;;;;;;;31.57;28.20;;;;;;;20.98;100.00;101166.22;5182014;28;20030;-79
2023/09/13 01:28:22;;;;;;;35.97;30.30;;;;;;;21.02;100.00;101188.91;5179827;28;20030;-79
2023/09/13 01:30:54;;;;;;;32.37;29.07;;;;;;;20.80;100.00;101163.53;5179072;28;20725;-80
2023/09/13 01:33:25;;;;;;;33.60;29.03;;;;;;;20.88;100.00;101195.56;5183920;28;20035;-80
2023/09/13 01:35:57;;;;;;;33.63;30.07;;;;;;;20.71;100.00;101162.63;5191966;28;20030;-80
2023/09/13 01:38:28;;;;;;;35.33;31.57;;;;;;;20.78;100.00;101178.81;5177993;28;20466;-80
2023/09/13 01:41:17;;;;;;;37.27;32.33;;;;;;;20.83;100.00;101165.91;5177574;28;20123;-80
2023/09/13 01:43:54;;;;;;;34.70;31.00;;;;;;;20.88;100.00;101192.03;5180743;28;20062;-80
2023/09/13 01:46:33;;;;;;;37.33;32.70;;;;;;;20.77;100.00;101177.16;5169233;28;20038;-80
2023/09/13 01:49:06;;;;;;;38.67;34.57;;;;;;;20.51;100.00;101167.25;5157417;28;20074;-81
2023/09/13 01:51:41;;;;;;;39.40;33.00;;;;;;;20.70;100.00;101216.81;5169812;28;20613;-80
2023/09/13 01:54:12;;;;;;;40.93;35.47;;;;;;;20.45;100.00;101174.00;5173332;28;20037;-80
2023/09/13 01:56:43;;;;;;;40.30;36.07;;;;;;;20.71;100.00;101204.38;5172852;28;20019;-80
2023/09/13 01:59:15;;;;;;;38.23;34.23;;;;;;;20.63;100.00;101191.81;5173643;28;20101;-80
2023/09/13 02:01:46;;;;;;;39.30;35.03;;;;;;;20.71;100.00;101215.00;5174492;28;20726;-80
2023/09/13 02:04:18;;;;;;;43.63;38.90;;;;;;;20.39;100.00;101169.25;5177437;28;20022;-80
2023/09/13 02:06:50;;;;;;;47.67;39.40;;;;;;;20.40;100.00;101174.44;5186712;28;20023;-80
2023/09/13 02:09:21;;;;;;;47.20;39.47;;;;;;;20.59;100.00;101180.63;5176487;28;20057;-80
2023/09/13 02:11:53;;;;;;;43.73;37.80;;;;;;;20.35;100.00;101186.53;5192979;28;20105;-80
2023/09/13 02:14:24;;;;;;;46.57;41.53;;;;;;;20.41;100.00;101175.28;5192664;28;20058;-80
2023/09/13 02:16:59;;;;;;;46.87;40.73;;;;;;;20.67;100.00;101195.84;5189955;28;20034;-80
2023/09/13 02:19:30;;;;;;;46.80;41.77;;;;;;;20.77;100.00;101223.22;5188453;28;20065;-80
2023/09/13 02:22:03;;;;;;;48.10;41.20;;;;;;;20.75;100.00;101227.03;5175185;28;20062;-80
2023/09/13 02:24:34;;;;;;;49.60;42.93;;;;;;;20.54;100.00;101201.53;5172864;28;20069;-80
2023/09/13 02:27:07;;;;;;;55.07;45.40;;;;;;;20.53;100.00;101197.19;5169025;28;20117;-80
2023/09/13 02:29:38;;;;;;;59.73;46.60;;;;;;;20.49;100.00;101201.16;5159175;28;20127;-80
2023/09/13 02:32:09;;;;;;;58.00;47.63;;;;;;;20.41;100.00;101205.38;5172696;28;20480;-80
2023/09/13 02:34:44;;;;;;;55.70;47.60;;;;;;;20.53;100.00;101206.00;5162999;28;20123;-80
2023/09/13 02:37:16;;;;;;;59.00;47.30;;;;;;;20.57;100.00;101224.34;5162654;28;20019;-80
2023/09/13 02:39:47;;;;;;;60.47;49.03;;;;;;;20.31;100.00;101197.47;5159901;28;20037;-80
2023/09/13 02:42:18;;;;;;;60.10;48.80;;;;;;;20.30;100.00;101193.13;5170824;28;20117;-80
2023/09/13 02:44:50;;;;;;;60.83;52.50;;;;;;;20.38;100.00;101207.50;5168909;28;20039;-79
2023/09/13 02:47:22;;;;;;;58.33;49.83;;;;;;;20.43;100.00;101207.91;5166575;28;20050;-81
2023/09/13 02:49:53;;;;;;;56.23;47.13;;;;;;;20.47;100.00;101225.25;5160542;28;20035;-81
2023/09/13 02:52:30;;;;;;;62.73;51.00;;;;;;;20.27;100.00;101185.44;5172269;28;20162;-81
2023/09/13 02:55:06;;;;;;;51.93;45.70;;;;;;;20.56;100.00;101228.84;5158524;28;20053;-81
2023/09/13 02:57:37;;;;;;;57.10;49.27;;;;;;;20.26;100.00;101218.34;5169465;28;20398;-80
2023/09/13 03:00:09;;;;;;;53.93;45.93;;;;;;;20.31;100.00;101216.09;5171867;28;20027;-80
2023/09/13 03:02:40;;;;;;;55.83;44.73;;;;;;;20.42;100.00;101228.31;5161979;28;20050;-80
2023/09/13 03:05:12;;;;;;;56.90;46.10;;;;;;;20.11;100.00;101195.88;5165835;28;20468;-80
2023/09/13 03:07:43;;;;;;;58.27;47.20;;;;;;;20.36;100.00;101234.25;5171352;28;20041;-81
2023/09/13 03:10:15;;;;;;;51.40;44.50;;;;;;;20.42;100.00;101246.13;5161916;28;20050;-80
2023/09/13 03:12:46;;;;;;;57.70;47.73;;;;;;;20.21;100.00;101233.06;5170957;28;20543;-80
2023/09/13 03:15:18;;;;;;;54.67;45.63;;;;;;;20.17;100.00;101209.44;5166460;28;20045;-81
2023/09/13 03:17:50;;;;;;;58.27;46.07;;;;;;;20.43;100.00;101237.16;5170258;28;20058;-81
2023/09/13 03:20:22;;;;;;;57.90;47.80;;;;;;;20.31;100.00;101242.69;5167482;28;20034;-81
2023/09/13 03:22:55;;;;;;;55.90;44.50;;;;;;;20.23;100.00;101237.22;5172313;28;20084;-81
2023/09/13 03:25:26;;;;;;;55.33;46.88;;;;;;;20.17;100.00;101214.75;5170390;28;20038;-81
2023/09/13 03:27:58;;;;;;;57.90;45.60;;;;;;;20.17;100.00;101214.75;5171831;28;20035;-80
2023/09/13 03:30:29;;;;;;;56.47;45.80;;;;;;;20.19;100.00;101226.06;5162516;28;20077;-81
2023/09/13 03:33:02;;;;;;;56.23;46.13;;;;;;;20.21;100.00;101247.22;5169830;28;20031;-81
2023/09/13 03:35:34;;;;;;;63.85;46.78;;;;;;;20.04;100.00;101220.38;5151186;28;20027;-80
2023/09/13 03:38:05;;;;;;;57.63;47.03;;;;;;;20.13;100.00;101233.78;5166380;28;20026;-81
2023/09/13 03:40:37;;;;;;;58.57;47.70;;;;;;;19.97;100.00;101232.53;5170458;28;20019;-82
2023/09/13 03:43:09;;;;;;;58.17;48.77;;;;;;;20.01;100.00;101235.75;5172135;28;20031;-81
2023/09/13 03:45:40;;;;;;;61.97;47.60;;;;;;;20.01;100.00;101228.63;5172268;28;20015;-82
2023/09/13 03:48:12;;;;;;;52.13;46.27;;;;;;;20.18;100.00;101243.00;5171530;28;20035;-83
2023/09/13 03:50:43;;;;;;;55.93;45.57;;;;;;;19.86;100.00;101206.16;5167936;28;20054;-82
2023/09/13 03:53:15;;;;;;;55.27;46.20;;;;;;;20.13;100.00;101236.44;5173375;28;20023;-82
2023/09/13 03:55:49;;;;;;;57.80;48.33;;;;;;;20.16;100.00;101250.28;5170778;28;20018;-82
2023/09/13 03:58:28;;;;;;;;;;;;;;;20.66;100.00;101268.69;5165996;28;20703;-83
2023/09/13 04:01:00;;;;;;;56.47;47.60;;;;;;;20.02;100.00;101232.94;5172166;28;19925;-82
2023/09/13 04:03:32;;;;;;;56.53;46.87;;;;;;;19.99;100.00;101221.75;5175721;28;20023;-82
2023/09/13 04:06:04;;;;;;;58.13;46.67;;;;;;;20.14;100.00;101251.41;5163062;28;20029;-82
2023/09/13 04:08:35;;;;;;;58.50;46.53;;;;;;;19.95;100.00;101210.59;5171501;28;20051;-82
2023/09/13 04:11:08;;;;;;;61.97;48.70;;;;;;;20.30;100.00;101253.44;5189875;28;20477;-81
2023/09/13 04:13:40;;;;;;;58.07;46.97;;;;;;;20.02;100.00;101232.94;5176063;28;20021;-82
2023/09/13 04:16:15;;;;;;;64.97;48.07;;;;;;;20.16;100.00;101254.78;5174945;28;20035;-82
2023/09/13 04:18:46;;;;;;;56.60;47.33;;;;;;;19.99;100.00;101227.94;5175033;28;20090;-82
2023/09/13 04:21:18;;;;;;;53.93;44.77;;;;;;;19.98;100.00;101239.56;5175778;28;20026;-82
2023/09/13 04:23:49;;;;;;;57.90;45.97;;;;;;;19.88;100.00;101222.78;5176631;28;20046;-82
2023/09/13 04:26:23;;;;;;;56.80;45.30;;;;;;;19.98;100.00;101225.41;5175656;28;20055;-82
2023/09/13 04:28:54;;;;;;;56.60;45.47;;;;;;;19.98;100.00;101238.69;5176767;28;20052;-82
2023/09/13 04:31:27;;;;;;;56.20;46.20;;;;;;;20.16;100.00;101262.75;5175912;28;20023;-81
2023/09/13 04:33:59;;;;;;;58.03;44.20;;;;;;;20.11;100.00;101257.84;5174035;28;20034;-80
2023/09/13 04:36:30;;;;;;;70.70;46.43;;;;;;;19.85;100.00;101231.88;5174155;28;20459;-80
2023/09/13 04:39:01;;;;;;;57.77;45.23;;;;;;;20.07;100.00;101261.81;5174596;28;20023;-79
2023/09/13 04:41:33;;;;;;;53.90;43.17;;;;;;;19.90;100.00;101263.34;5173987;28;20029;-80
2023/09/13 04:44:04;;;;;;;58.20;45.67;;;;;;;20.01;100.00;101281.78;5167289;28;20038;-79
2023/09/13 04:46:36;;;;;;;56.90;45.57;;;;;;;20.06;100.00;101260.97;5166945;28;20027;-80
2023/09/13 04:49:10;;;;;;;53.97;43.70;;;;;;;20.19;100.00;101265.94;5164021;28;20031;-79
2023/09/13 04:51:42;;;;;;;58.63;43.73;;;;;;;19.98;100.00;101260.81;5167028;28;20034;-80
2023/09/13 04:54:13;;;;;;;56.57;43.50;;;;;;;19.86;100.00;101227.41;5163080;28;20561;-80
2023/09/13 04:56:44;;;;;;;53.90;42.90;;;;;;;19.85;100.00;101226.56;5170849;28;20030;-80
2023/09/13 04:59:16;;;;;;;52.53;42.73;;;;;;;19.89;100.00;101256.34;5172608;28;20069;-80
2023/09/13 05:01:48;;;;;;;58.40;43.57;;;;;;;19.84;100.00;101254.13;5167060;28;20089;-80
2023/09/13 05:04:19;;;;;;;53.13;39.97;;;;;;;19.81;100.00;101235.81;5172728;28;20055;-80
2023/09/13 05:06:50;;;;;;;50.30;41.10;;;;;;;19.80;100.00;101240.28;5171265;28;20037;-80
2023/09/13 05:09:22;;;;;;;49.87;40.87;;;;;;;19.78;100.00;101252.88;5168524;28;20049;-81
2023/09/13 05:11:53;;;;;;;49.77;41.07;;;;;;;19.84;100.00;101251.47;5171536;28;20122;-81
2023/09/13 05:14:24;;;;;;;51.57;43.90;;;;;;;19.82;100.00;101266.72;5172853;28;20037;-82
2023/09/13 05:16:56;;;;;;;48.30;40.40;;;;;;;19.66;100.00;101248.69;5172831;28;20043;-82
2023/09/13 05:19:27;;;;;;;49.53;40.23;;;;;;;19.69;100.00;101254.56;5163012;28;20493;-81
2023/09/13 05:21:59;;;;;;;51.47;41.67;;;;;;;19.82;100.00;101264.91;5163166;28;20031;-81
2023/09/13 05:24:30;;;;;;;48.10;40.87;;;;;;;19.58;100.00;101236.97;5171920;28;20162;-80
2023/09/13 05:27:02;;;;;;;51.50;40.60;;;;;;;19.73;100.00;101264.91;5169917;28;20027;-81
2023/09/13 05:29:34;;;;;;;52.17;41.40;;;;;;;19.80;100.00;101266.88;5164177;28;20039;-81
2023/09/13 05:32:05;;;;;;;48.40;40.00;;;;;;;19.65;100.00;101250.53;5168213;28;20402;-80
2023/09/13 05:34:37;;;;;;;51.07;39.47;;;;;;;19.73;100.00;101259.59;5171931;28;20057;-81
2023/09/13 05:37:08;;;;;;;47.93;40.10;;;;;;;19.63;100.00;101252.50;5171735;28;20031;-81
2023/09/13 05:39:40;;;;;;;51.17;40.10;;;;;;;19.65;100.00;101277.13;5171386;28;20062;-81
2023/09/13 05:42:11;;;;;;;46.67;39.03;;;;;;;19.71;100.00;101286.31;5160643;28;20034;-78
2023/09/13 05:44:43;;;;;;;49.23;40.30;;;;;;;19.64;100.00;101283.38;5166387;28;20066;-78
2023/09/13 05:47:15;;;;;;;53.13;41.30;;;;;;;19.73;100.00;101287.00;5166394;28;20463;-80
2023/09/13 05:49:47;;;;;;;46.93;39.80;;;;;;;19.80;100.00;101309.38;5170528;28;20639;-80
2023/09/13 05:52:19;;;;;;;52.10;40.30;;;;;;;19.58;100.00;101268.84;5167376;28;20047;-80
2023/09/13 05:54:53;;;;;;;47.83;40.63;;;;;;;19.74;100.00;101288.69;5166893;28;20093;-80
2023/09/13 05:57:27;;;;;;;54.40;40.08;;;;;;;19.87;100.00;101308.81;5173028;28;20022;-79
2023/09/13 05:59:58;;;;;;;48.17;37.47;;;;;;;19.70;100.00;101298.78;5168751;28;20027;-79
2023/09/13 06:02:29;;;;;;;50.73;39.10;;;;;;;19.70;100.00;101295.28;5169899;28;20029;-79
2023/09/13 06:05:02;;;;;;;46.07;38.33;;;;;;;19.74;100.00;101306.47;5168705;28;20030;-80
2023/09/13 06:07:34;;;;;;;45.57;39.87;;;;;;;19.70;100.00;101311.22;5166997;28;20374;-82
2023/09/13 06:10:10;;;;;;;44.57;35.40;;;;;;;19.66;100.00;101293.88;5163138;28;20050;-82
2023/09/13 06:12:42;;;;;;;44.87;36.47;;;;;;;19.55;100.00;101271.78;5170377;28;20039;-82
2023/09/13 06:15:13;;;;;;;45.33;37.33;;;;;;;19.81;100.00;101320.88;5173259;28;20379;-82
2023/09/13 06:17:45;;;;;;;46.53;38.10;;;;;;;19.76;100.00;101312.47;5173717;28;20471;-81
2023/09/13 06:20:17;;;;;;;45.90;36.53;;;;;;;19.71;100.00;101327.03;5173376;28;20030;-82
2023/09/13 06:22:48;;;;;;;45.70;36.40;;;;;;;19.67;100.00;101327.44;5178170;28;20050;-82
2023/09/13 06:25:20;;;;;;;39.43;34.97;;;;;;;19.71;100.00;101311.06;5173916;28;20541;-80
2023/09/13 06:27:51;;;;;;;55.17;38.47;;;;;;;19.78;100.00;101329.09;5178862;28;20034;-80
2023/09/13 06:30:23;;;;;;;41.13;33.27;;;;;;;19.83;100.00;101329.50;5171130;28;20054;-80
2023/09/13 06:32:54;;;;;;;36.10;32.03;;;;;;;19.75;100.00;101327.56;5165562;28;20109;-80
2023/09/13 06:35:26;;;;;;;43.93;33.97;;;;;;;19.69;100.00;101317.50;5164995;28;20141;-80
2023/09/13 06:37:57;;;;;;;39.70;31.97;;;;;;;20.00;100.00;101351.88;5170549;28;20486;-80
2023/09/13 06:40:29;;;;;;;41.90;34.83;;;;;;;19.94;100.00;101349.78;5169551;28;20085;-80
2023/09/13 06:43:00;;;;;;;38.47;33.83;;;;;;;19.89;100.00;101339.59;5169018;28;20109;-80
2023/09/13 06:45:31;;;;;;;46.30;36.97;;;;;;;19.93;100.00;101366.72;5169534;28;20027;-80
2023/09/13 06:48:04;;;;;;;39.37;34.10;;;;;;;19.77;100.00;101361.97;5168500;28;20086;-80
2023/09/13 06:50:35;;;;;;;42.70;34.67;;;;;;;19.90;100.00;101357.22;5168729;28;20105;-80
2023/09/13 06:53:06;;;;;;;40.93;32.93;;;;;;;19.94;100.00;101366.59;5169527;28;20165;-80
2023/09/13 06:55:38;;;;;;;38.87;32.43;;;;;;;19.92;100.00;101352.59;5169592;28;20018;-78
2023/09/13 06:58:09;;;;;;;41.10;30.87;;;;;;;20.04;100.00;101371.91;5166264;28;20031;-78
2023/09/13 07:00:42;;;;;;;43.60;32.73;;;;;;;20.02;100.00;101381.81;5169702;28;20058;-78
2023/09/13 07:03:13;;;;;;;39.73;33.07;;;;;;;19.74;100.00;101338.34;5168014;28;20081;-78
2023/09/13 07:05:44;;;;;;;42.60;33.87;;;;;;;19.91;100.00;101358.06;5169237;28;20046;-78
2023/09/13 07:08:16;;;;;;;40.17;33.43;;;;;;;19.93;100.00;101372.06;5169232;28;20109;-78
2023/09/13 07:10:47;;;;;;;46.03;34.53;;;;;;;19.98;100.00;101376.94;5168930;28;20037;-78
2023/09/13 07:13:18;;;;;;;44.00;34.37;;;;;;;19.89;100.00;101366.16;5161964;28;20105;-78
2023/09/13 07:15:49;;;;;;;44.40;34.90;;;;;;;19.93;100.00;101372.06;5167598;28;20644;-78
2023/09/13 07:18:23;;;;;;;43.67;35.13;;;;;;;20.22;100.00;101408.41;5168258;28;20058;-79
2023/09/13 07:20:54;;;;;;;46.77;34.40;;;;;;;20.07;100.00;101371.63;5166913;28;20031;-78
2023/09/13 07:23:27;;;;;;;46.83;37.83;;;;;;;20.21;100.00;101389.94;5168652;28;20034;-79
2023/09/13 07:25:59;;;;;;;44.60;35.90;;;;;;;20.09;100.00;101360.84;5169567;28;20033;-79
2023/09/13 07:28:30;;;;;;;43.00;34.87;;;;;;;20.37;100.00;101394.69;5168703;28;20019;-79
2023/09/13 07:31:07;;;;;;;42.80;34.63;;;;;;;20.38;100.00;101375.06;5156199;28;20320;-79
2023/09/13 07:33:39;;;;;;;41.73;34.57;;;;;;;20.45;100.00;101391.28;5167670;28;20041;-79
2023/09/13 07:36:11;;;;;;;48.80;35.27;;;;;;;20.55;100.00;101408.91;5168345;28;20026;-79
2023/09/13 07:38:42;;;;;;;51.33;34.20;;;;;;;20.47;100.00;101403.47;5168889;28;20588;-79
2023/09/13 07:41:13;;;;;;;40.60;32.87;;;;;;;20.55;100.00;101405.41;5168797;28;20231;-78
2023/09/13 07:43:45;;;;;;;52.80;34.43;;;;;;;20.25;100.00;101375.38;5168773;28;20034;-78
2023/09/13 07:46:16;;;;;;;45.03;32.87;;;;;;;20.36;100.00;101398.31;5169040;28;20038;-78
2023/09/13 07:48:47;;;;;;;45.77;35.13;;;;;;;20.42;100.00;101413.72;5167168;28;20085;-78
2023/09/13 07:51:19;;;;;;;43.77;33.87;;;;;;;20.24;100.00;101381.69;5168353;28;20056;-78
2023/09/13 07:53:53;;;;;;;41.70;32.00;;;;;;;20.43;100.00;101410.06;5169036;28;20046;-78
2023/09/13 07:56:25;;;;;;;25.00;16.73;;;;;;;20.27;100.00;101435.44;5168330;28;20136;-78
2023/09/13 07:58:57;;;;;;;13.73;11.13;;;;;;;19.93;100.00;101436.66;5168704;28;20461;-78
2023/09/13 08:01:29;;;;;;;14.37;10.60;;;;;;;20.00;100.00;101452.06;5168752;28;20037;-78
2023/09/13 08:04:00;;;;;;;10.03;7.33;;;;;;;19.88;100.00;101424.78;5166896;28;20031;-78
2023/09/13 08:06:32;;;;;;;5.37;4.17;;;;;;;19.85;100.00;101448.97;5169003;28;20015;-79
2023/09/13 08:09:03;;;;;;;4.30;2.27;;;;;;;20.02;100.00;101472.22;5168646;28;20046;-79
2023/09/13 08:11:35;;;;;;;3.40;1.70;;;;;;;19.64;100.00;101447.25;5168278;28;20161;-79
2023/09/13 08:14:06;;;;;;;3.43;1.43;;;;;;;19.71;100.00;101456.38;5177068;28;20100;-79
2023/09/13 08:16:37;;;;;;;4.37;1.60;;;;;;;19.71;100.00;101462.53;5168416;28;20027;-79
2023/09/13 08:19:09;;;;;;;3.67;1.47;;;;;;;19.76;100.00;101453.31;5167337;28;20026;-79
2023/09/13 08:21:41;;;;;;;5.93;1.23;;;;;;;20.01;100.00;101470.53;5169687;28;20057;-79
2023/09/13 08:24:12;;;;;;;2.70;1.07;;;;;;;20.07;100.00;101470.00;5164193;28;20038;-78
2023/09/13 08:26:44;;;;;;;1.70;0.90;;;;;;;19.79;100.00;101463.66;5168046;28;20022;-79
2023/09/13 08:29:15;;;;;;;2.10;0.90;;;;;;;20.31;100.00;101505.13;5171921;28;20022;-79
2023/09/13 08:31:46;;;;;;;1.73;0.90;;;;;;;19.97;100.00;101484.25;5169884;28;20026;-79
2023/09/13 08:34:18;;;;;;;2.87;1.00;;;;;;;20.35;100.00;101516.34;5164171;28;20075;-79
2023/09/13 08:36:53;;;;;;;1.80;1.00;;;;;;;20.35;100.00;101497.72;5163947;28;20027;-79
2023/09/13 08:39:25;;;;;;;2.97;0.80;;;;;;;20.41;100.00;101529.06;5169763;28;20037;-79
2023/09/13 08:41:56;;;;;;;3.53;0.90;;;;;;;20.52;100.00;101531.59;5171158;28;20495;-79
2023/09/13 08:44:30;;;;;;;1.77;0.70;;;;;;;20.26;100.00;101524.19;5167304;28;20061;-79
2023/09/13 08:47:04;;;;;;;1.13;0.60;;;;;;;20.13;100.00;101526.25;5171372;28;20497;-79
2023/09/13 08:49:36;;;;;;;2.05;0.68;;;;;;;20.34;100.00;101562.53;5169671;28;20039;-79
2023/09/13 08:52:08;;;;;;;2.77;0.70;;;;;;;20.04;100.00;101525.22;5174055;28;20418;-79
2023/09/13 08:54:41;;;;;;;1.20;0.63;;;;;;;20.03;100.00;101545.69;5171531;28;20086;-79
2023/09/13 08:57:13;;;;;;;0.90;0.60;;;;;;;20.21;100.00;101574.28;5169644;28;20357;-79
2023/09/13 08:59:44;;;;;;;4.03;0.70;;;;;;;20.26;100.00;101579.19;5169623;28;20030;-79
2023/09/13 09:02:21;;;;;;;1.38;0.52;;;;;;;20.14;100.00;101571.31;5168351;28;20034;-79
2023/09/13 09:04:55;;;;;;;5.03;0.93;;;;;;;20.07;100.00;101581.66;5167750;28;20062;-79
2023/09/13 09:07:27;;;;;;;4.03;0.60;;;;;;;20.35;100.00;101582.84;5169583;28;20523;-79
2023/09/13 09:10:00;;;;;;;1.10;0.57;;;;;;;20.39;100.00;101594.88;5169115;28;20058;-79
2023/09/13 09:12:32;;;;;;;2.22;0.70;;;;;;;20.42;100.00;101606.06;5171321;28;20246;-79
2023/09/13 09:15:05;;;;;;;1.33;0.67;;;;;;;20.35;100.00;101614.75;5170703;28;20382;-79
2023/09/13 09:17:37;;;;;;;0.90;0.50;;;;;;;20.12;100.00;101594.56;5169966;28;20584;-79
2023/09/13 09:20:09;;;;;;;2.83;0.73;;;;;;;20.40;100.00;101615.19;5171203;28;20015;-79
2023/09/13 09:22:41;;;;;;;3.03;0.90;;;;;;;20.16;100.00;101600.47;5170928;28;20034;-79
2023/09/13 09:25:13;;;;;;;1.48;0.73;;;;;;;20.05;100.00;101630.66;5170280;28;20409;-78
2023/09/13 09:27:44;;;;;;;2.97;0.90;;;;;;;20.03;100.00;101622.78;5171367;28;20035;-78
2023/09/13 09:30:16;;;;;;;1.70;0.93;;;;;;;19.89;100.00;101607.19;5170205;28;20094;-78
2023/09/13 09:32:47;;;;;;;1.98;0.70;;;;;;;20.19;100.00;101632.09;5170244;28;20026;-78
2023/09/13 09:35:19;;;;;;;2.60;0.90;;;;;;;20.13;100.00;101643.25;5170584;28;20105;-78
2023/09/13 09:37:50;;;;;;;1.63;0.97;;;;;;;20.17;100.00;101637.56;5170372;28;20056;-78
2023/09/13 09:40:22;;;;;;;4.07;0.90;;;;;;;20.15;100.00;101620.03;5170773;28;20023;-78
2023/09/13 09:42:54;;;;;;;2.37;0.80;;;;;;;20.26;100.00;101638.56;5170929;28;20062;-79
2023/09/13 09:45:26;;;;;;;1.90;0.90;;;;;;;20.18;100.00;101625.06;5169627;28;20018;-79
2023/09/13 09:47:57;;;;;;;5.38;0.95;;;;;;;20.10;100.00;101632.91;5170008;28;20466;-78
2023/09/13 09:50:32;;;;;;;2.73;0.97;;;;;;;20.31;100.00;101657.59;5170392;28;20019;-78
2023/09/13 09:53:09;;;;;;;2.23;1.00;;;;;;;20.13;100.00;101632.63;5170505;28;20031;-78
2023/09/13 09:55:44;;;;;;;1.90;0.90;;;;;;;20.44;100.00;101637.84;5170330;28;20400;-78
2023/09/13 09:58:17;;;;;;;1.83;0.60;;;;;;;20.36;100.00;101637.72;5169663;28;20476;-78
2023/09/13 10:00:50;;;;;;;1.50;0.90;;;;;;;20.55;100.00;101640.41;5170032;28;20141;-78
2023/09/13 10:03:22;;;;;;;1.20;0.73;;;;;;;20.69;100.00;101630.31;5168982;28;20023;-78
2023/09/13 10:06:10;;;;;;;2.13;1.00;;;;;;;21.15;100.00;101646.56;5170235;28;20216;-78
2023/09/13 10:08:46;;;;;;;1.88;1.00;;;;;;;21.28;100.00;101645.41;5168800;28;20061;-78
2023/09/13 10:11:20;;;;;;;2.85;0.70;;;;;;;21.67;100.00;101639.13;5170101;28;20057;-77
2023/09/13 10:13:52;;;;;;;1.77;0.70;;;;;;;22.14;100.00;101649.88;5170375;28;20037;-77
2023/09/13 10:16:30;;;;;;;1.50;0.70;;;;;;;21.73;100.00;101662.53;5169224;28;20073;-78
2023/09/13 10:19:03;;;;;;;2.05;0.93;;;;;;;22.31;100.00;101674.91;5167461;28;20114;-78
2023/09/13 10:21:36;;;;;;;1.75;0.90;;;;;;;22.46;100.00;101646.72;5167852;28;20102;-78
2023/09/13 10:24:09;;;;;;;5.72;1.10;;;;;;;22.54;100.00;101678.00;5169668;28;20026;-76
2023/09/13 10:26:41;;;;;;;1.73;0.90;;;;;;;22.36;100.00;101688.63;5169904;28;20058;-76
2023/09/13 10:29:31;;;;;;;3.58;1.10;;;;;;;22.55;100.00;101660.97;5169333;28;20598;-77
2023/09/13 10:32:07;;;;;;;1.63;0.88;;;;;;;22.19;100.00;101661.78;5168761;28;20027;-76
2023/09/13 10:34:46;;;;;;;4.88;0.73;;;;;;;23.07;100.00;101690.69;5181664;28;20031;-76
2023/09/13 10:37:51;;;;;;;2.53;1.30;;;;;;;24.22;100.00;101701.41;5181174;28;20099;-76
2023/09/13 10:40:27;;;;;;;4.57;1.20;;;;;;;24.52;100.00;101705.31;5164094;28;20065;-77
2023/09/13 10:43:00;;;;;;;2.17;0.80;;;;;;;24.24;100.00;101696.75;5175203;28;20042;-77
2023/09/13 10:45:31;;;;;;;1.60;0.93;;;;;;;23.62;100.00;101704.78;5171911;28;20145;-77
2023/09/13 10:48:04;;;;;;;2.10;0.98;;;;;;;23.57;100.00;101723.13;5169054;28;20053;-77
2023/09/13 10:50:37;;;;;;;2.00;1.08;;;;;;;23.64;100.00;101693.94;5166314;28;20035;-77
2023/09/13 10:53:10;;;;;;;2.05;1.02;;;;;;;23.16;100.00;101715.66;5169391;28;20046;-77
2023/09/13 10:55:42;;;;;;;2.08;0.85;;;;;;;23.62;100.00;101696.75;5169144;28;20018;-77
2023/09/13 10:58:20;;;;;;;1.70;0.73;;;;;;;22.86;100.00;101705.22;5169611;28;20427;-77
2023/09/13 11:00:54;;;;;;;3.40;1.10;;;;;;;23.60;100.00;101709.44;5169257;28;20525;-77
2023/09/13 11:03:27;;;;;;;2.05;0.95;;;;;;;23.32;100.00;101733.63;5168575;28;20093;-77
2023/09/13 11:05:59;;;;;;;1.85;0.73;;;;;;;22.93;100.00;101716.97;5168901;28;20124;-77
2023/09/13 11:08:32;;;;;;;1.65;0.80;;;;;;;22.82;100.00;101746.56;5167744;28;20046;-77
2023/09/13 11:11:22;;;;;;;1.08;0.60;;;;;;;23.23;100.00;101747.91;5168549;28;20034;-77
2023/09/13 11:13:55;;;;;;;2.20;1.00;;;;;;;22.73;100.00;101721.59;5163800;28;20058;-77
2023/09/13 11:16:27;;;;;;;2.85;0.93;;;;;;;22.76;100.00;101729.28;5172136;28;20471;-77
2023/09/13 11:19:03;;;;;;;2.92;1.08;;;;;;;22.83;100.00;101705.53;5168498;28;20027;-77
2023/09/13 11:21:51;;;;;;;2.92;0.93;;;;;;;23.15;100.00;101752.19;5169349;28;20046;-77
2023/09/13 11:24:43;;;;;;;2.50;0.65;;;;;;;23.21;100.00;101748.09;5168645;28;20019;-77
2023/09/13 11:27:18;;;;;;;2.03;1.00;;;;;;;22.94;100.00;101718.63;5168578;28;20038;-77
2023/09/13 11:29:50;;;;;;;2.28;0.93;;;;;;;22.53;100.00;101740.41;5169284;28;20382;-77
2023/09/13 11:32:26;;;;;;;2.15;1.00;;;;;;;22.52;100.00;101749.38;5166647;28;20019;-77